sensor_id;sensor_type;location;lat;lon;timestamp;P1;durP1;ratioP1;P2;durP2;ratioP2
1328;SDS011;658;48.820;9.354;2023-10-09T00:03:14;6.13;;;4.43;;
1328;SDS011;658;48.820;9.354;2023-10-09T00:07:14;5.17;;;4.57;;
1328;SDS011;658;48.820;9.354;2023-10-09T00:11:16;3.87;;;3.57;;
1328;SDS011;658;48.820;9.354;2023-10-09T00:15:17;4.73;;;4.10;;
1328;SDS011;658;48.820;9.354;2023-10-09T00:19:18;4.70;;;4.30;;
1328;SDS011;658;48.820;9.354;2023-10-09T00:23:30;3.70;;;3.40;;
1328;SDS011;658;48.820;9.354;2023-10-09T00:27:34;4.13;;;3.53;;
1328;SDS011;658;48.820;9.354;2023-10-09T00:31:36;3.47;;;3.17;;
1328;SDS011;658;48.820;9.354;2023-10-09T00:35:37;4.07;;;3.77;;
1328;SDS011;658;48.820;9.354;2023-10-09T00:39:45;5.23;;;3.73;;
1328;SDS011;658;48.820;9.354;2023-10-09T00:43:48;4.10;;;3.70;;
1328;SDS011;658;48.820;9.354;2023-10-09T00:47:50;5.57;;;3.70;;
1328;SDS011;658;48.820;9.354;2023-10-09T00:51:51;3.50;;;3.20;;
1328;SDS011;658;48.820;9.354;2023-10-09T00:55:56;4.23;;;3.70;;
1328;SDS011;658;48.820;9.354;2023-10-09T01:00:04;3.40;;;3.10;;
1328;SDS011;658;48.820;9.354;2023-10-09T01:04:23;4.30;;;3.40;;
1328;SDS011;658;48.820;9.354;2023-10-09T01:08:26;3.73;;;3.40;;
1328;SDS011;658;48.820;9.354;2023-10-09T01:12:40;4.27;;;3.77;;
1328;SDS011;658;48.820;9.354;2023-10-09T01:16:44;4.40;;;3.40;;
1328;SDS011;658;48.820;9.354;2023-10-09T01:20:47;3.30;;;3.00;;
1328;SDS011;658;48.820;9.354;2023-10-09T01:24:47;3.83;;;3.40;;
1328;SDS011;658;48.820;9.354;2023-10-09T01:28:50;3.37;;;3.07;;
1328;SDS011;658;48.820;9.354;2023-10-09T01:32:51;3.03;;;2.77;;
1328;SDS011;658;48.820;9.354;2023-10-09T01:36:57;3.13;;;2.83;;
1328;SDS011;658;48.820;9.354;2023-10-09T01:41:00;3.00;;;2.80;;
1328;SDS011;658;48.820;9.354;2023-10-09T01:45:07;3.70;;;3.10;;
1328;SDS011;658;48.820;9.354;2023-10-09T01:49:12;2.80;;;2.60;;
1328;SDS011;658;48.820;9.354;2023-10-09T01:53:21;2.90;;;2.60;;
1328;SDS011;658;48.820;9.354;2023-10-09T01:57:27;2.93;;;2.63;;
1328;SDS011;658;48.820;9.354;2023-10-09T02:01:30;4.10;;;2.70;;
1328;SDS011;658;48.820;9.354;2023-10-09T02:05:33;2.63;;;2.43;;
1328;SDS011;658;48.820;9.354;2023-10-09T02:09:36;2.70;;;2.23;;
1328;SDS011;658;48.820;9.354;2023-10-09T02:13:44;3.10;;;2.80;;
1328;SDS011;658;48.820;9.354;2023-10-09T02:17:47;4.50;;;3.10;;
1328;SDS011;658;48.820;9.354;2023-10-09T02:22:01;2.60;;;2.40;;
1328;SDS011;658;48.820;9.354;2023-10-09T02:26:20;3.10;;;2.60;;
1328;SDS011;658;48.820;9.354;2023-10-09T02:30:40;2.90;;;2.60;;
1328;SDS011;658;48.820;9.354;2023-10-09T02:34:41;2.90;;;2.70;;
1328;SDS011;658;48.820;9.354;2023-10-09T02:38:46;2.73;;;2.40;;
1328;SDS011;658;48.820;9.354;2023-10-09T02:42:48;2.43;;;2.23;;
1328;SDS011;658;48.820;9.354;2023-10-09T02:46:49;3.10;;;2.80;;
1328;SDS011;658;48.820;9.354;2023-10-09T02:50:50;3.23;;;2.30;;
1328;SDS011;658;48.820;9.354;2023-10-09T02:54:51;2.90;;;2.30;;
1328;SDS011;658;48.820;9.354;2023-10-09T02:59:01;2.90;;;2.40;;
1328;SDS011;658;48.820;9.354;2023-10-09T03:03:06;2.47;;;2.27;;
1328;SDS011;658;48.820;9.354;2023-10-09T03:07:09;2.13;;;1.97;;
1328;SDS011;658;48.820;9.354;2023-10-09T03:11:10;2.30;;;2.10;;
1328;SDS011;658;48.820;9.354;2023-10-09T03:15:15;2.77;;;2.43;;
1328;SDS011;658;48.820;9.354;2023-10-09T03:19:16;2.03;;;1.90;;
1328;SDS011;658;48.820;9.354;2023-10-09T03:23:16;2.47;;;2.03;;
1328;SDS011;658;48.820;9.354;2023-10-09T03:27:22;2.10;;;1.90;;
1328;SDS011;658;48.820;9.354;2023-10-09T03:31:23;2.37;;;2.17;;
1328;SDS011;658;48.820;9.354;2023-10-09T03:35:25;2.57;;;1.90;;
1328;SDS011;658;48.820;9.354;2023-10-09T03:39:28;2.53;;;2.13;;
1328;SDS011;658;48.820;9.354;2023-10-09T03:43:38;2.40;;;2.20;;
1328;SDS011;658;48.820;9.354;2023-10-09T03:47:41;2.13;;;1.90;;
1328;SDS011;658;48.820;9.354;2023-10-09T03:51:48;2.50;;;2.30;;
1328;SDS011;658;48.820;9.354;2023-10-09T03:55:49;2.20;;;2.10;;
1328;SDS011;658;48.820;9.354;2023-10-09T03:59:50;2.50;;;1.93;;
1328;SDS011;658;48.820;9.354;2023-10-09T04:03:51;2.37;;;2.17;;
1328;SDS011;658;48.820;9.354;2023-10-09T04:07:55;1.77;;;1.67;;
1328;SDS011;658;48.820;9.354;2023-10-09T04:11:58;2.20;;;2.00;;
1328;SDS011;658;48.820;9.354;2023-10-09T04:16:11;2.20;;;1.80;;
1328;SDS011;658;48.820;9.354;2023-10-09T04:20:32;2.57;;;1.90;;
1328;SDS011;658;48.820;9.354;2023-10-09T04:24:32;2.23;;;2.10;;
1328;SDS011;658;48.820;9.354;2023-10-09T04:28:41;1.70;;;1.60;;
1328;SDS011;658;48.820;9.354;2023-10-09T04:32:51;2.20;;;2.00;;
1328;SDS011;658;48.820;9.354;2023-10-09T04:36:55;2.00;;;1.80;;
1328;SDS011;658;48.820;9.354;2023-10-09T04:41:17;1.77;;;1.67;;
1328;SDS011;658;48.820;9.354;2023-10-09T04:45:27;1.93;;;1.73;;
1328;SDS011;658;48.820;9.354;2023-10-09T04:49:46;1.80;;;1.70;;
1328;SDS011;658;48.820;9.354;2023-10-09T04:54:01;5.17;;;2.27;;
1328;SDS011;658;48.820;9.354;2023-10-09T04:58:14;2.10;;;1.90;;
1328;SDS011;658;48.820;9.354;2023-10-09T05:02:24;2.67;;;2.17;;
1328;SDS011;658;48.820;9.354;2023-10-09T05:06:24;2.17;;;1.90;;
1328;SDS011;658;48.820;9.354;2023-10-09T05:10:42;2.57;;;2.20;;
1328;SDS011;658;48.820;9.354;2023-10-09T05:15:03;2.60;;;2.10;;
1328;SDS011;658;48.820;9.354;2023-10-09T05:19:12;2.70;;;2.17;;
1328;SDS011;658;48.820;9.354;2023-10-09T05:23:29;1.93;;;1.77;;
1328;SDS011;658;48.820;9.354;2023-10-09T05:27:44;3.00;;;2.03;;
1328;SDS011;658;48.820;9.354;2023-10-09T05:31:52;2.53;;;1.90;;
1328;SDS011;658;48.820;9.354;2023-10-09T05:36:12;2.70;;;2.10;;
1328;SDS011;658;48.820;9.354;2023-10-09T05:40:31;4.60;;;2.10;;
1328;SDS011;658;48.820;9.354;2023-10-09T05:44:35;2.67;;;1.87;;
1328;SDS011;658;48.820;9.354;2023-10-09T05:49:04;2.90;;;2.30;;
1328;SDS011;658;48.820;9.354;2023-10-09T05:53:19;3.23;;;1.80;;
1328;SDS011;658;48.820;9.354;2023-10-09T05:57:39;2.77;;;1.93;;
1328;SDS011;658;48.820;9.354;2023-10-09T06:01:44;3.40;;;1.87;;
1328;SDS011;658;48.820;9.354;2023-10-09T06:06:14;4.50;;;1.90;;
1328;SDS011;658;48.820;9.354;2023-10-09T06:10:33;2.80;;;2.00;;
1328;SDS011;658;48.820;9.354;2023-10-09T06:14:40;2.80;;;2.17;;
1328;SDS011;658;48.820;9.354;2023-10-09T06:18:57;6.30;;;2.40;;
1328;SDS011;658;48.820;9.354;2023-10-09T06:23:08;4.33;;;2.10;;
1328;SDS011;658;48.820;9.354;2023-10-09T06:27:23;2.20;;;1.97;;
1328;SDS011;658;48.820;9.354;2023-10-09T06:31:46;5.73;;;2.30;;
1328;SDS011;658;48.820;9.354;2023-10-09T06:35:57;3.17;;;2.20;;
1328;SDS011;658;48.820;9.354;2023-10-09T06:40:08;5.03;;;2.27;;
1328;SDS011;658;48.820;9.354;2023-10-09T06:44:11;2.90;;;1.80;;
1328;SDS011;658;48.820;9.354;2023-10-09T06:48:34;3.37;;;2.00;;
1328;SDS011;658;48.820;9.354;2023-10-09T06:52:35;1.70;;;1.60;;
1328;SDS011;658;48.820;9.354;2023-10-09T06:56:54;1.87;;;1.60;;
1328;SDS011;658;48.820;9.354;2023-10-09T07:00:55;2.60;;;2.00;;
1328;SDS011;658;48.820;9.354;2023-10-09T07:04:59;2.43;;;1.63;;
1328;SDS011;658;48.820;9.354;2023-10-09T07:09:10;2.37;;;1.80;;
1328;SDS011;658;48.820;9.354;2023-10-09T07:13:12;3.37;;;1.70;;
1328;SDS011;658;48.820;9.354;2023-10-09T07:17:12;2.50;;;1.70;;
1328;SDS011;658;48.820;9.354;2023-10-09T07:21:16;2.17;;;1.97;;
1328;SDS011;658;48.820;9.354;2023-10-09T07:25:19;2.83;;;2.20;;
1328;SDS011;658;48.820;9.354;2023-10-09T07:29:39;2.93;;;1.57;;
1328;SDS011;658;48.820;9.354;2023-10-09T07:33:49;11.03;;;2.70;;
1328;SDS011;658;48.820;9.354;2023-10-09T07:37:56;4.13;;;1.67;;
1328;SDS011;658;48.820;9.354;2023-10-09T07:41:57;1.57;;;1.47;;
1328;SDS011;658;48.820;9.354;2023-10-09T07:46:18;1.60;;;1.50;;
1328;SDS011;658;48.820;9.354;2023-10-09T07:50:54;2.50;;;1.90;;
1328;SDS011;658;48.820;9.354;2023-10-09T07:54:57;2.80;;;2.03;;
1328;SDS011;658;48.820;9.354;2023-10-09T07:59:01;1.77;;;1.67;;
1328;SDS011;658;48.820;9.354;2023-10-09T08:03:10;2.03;;;1.60;;
1328;SDS011;658;48.820;9.354;2023-10-09T08:07:23;4.90;;;1.80;;
1328;SDS011;658;48.820;9.354;2023-10-09T08:11:36;2.17;;;1.73;;
1328;SDS011;658;48.820;9.354;2023-10-09T08:15:39;2.97;;;2.03;;
1328;SDS011;658;48.820;9.354;2023-10-09T08:19:52;7.23;;;2.47;;
1328;SDS011;658;48.820;9.354;2023-10-09T08:24:11;5.83;;;2.13;;
1328;SDS011;658;48.820;9.354;2023-10-09T08:28:31;3.50;;;1.90;;
1328;SDS011;658;48.820;9.354;2023-10-09T08:32:43;2.60;;;1.50;;
1328;SDS011;658;48.820;9.354;2023-10-09T08:37:00;2.30;;;1.60;;
1328;SDS011;658;48.820;9.354;2023-10-09T08:41:10;3.63;;;1.77;;
1328;SDS011;658;48.820;9.354;2023-10-09T08:45:17;4.43;;;1.60;;
1328;SDS011;658;48.820;9.354;2023-10-09T08:49:26;1.60;;;1.30;;
1328;SDS011;658;48.820;9.354;2023-10-09T08:53:30;3.17;;;1.70;;
1328;SDS011;658;48.820;9.354;2023-10-09T08:57:31;3.73;;;2.10;;
1328;SDS011;658;48.820;9.354;2023-10-09T09:01:33;3.80;;;1.97;;
1328;SDS011;658;48.820;9.354;2023-10-09T09:05:34;3.90;;;2.03;;
1328;SDS011;658;48.820;9.354;2023-10-09T09:09:36;2.83;;;2.00;;
1328;SDS011;658;48.820;9.354;2023-10-09T09:13:42;2.60;;;1.50;;
1328;SDS011;658;48.820;9.354;2023-10-09T09:18:18;7.20;;;2.43;;
1328;SDS011;658;48.820;9.354;2023-10-09T09:22:22;3.77;;;1.93;;
1328;SDS011;658;48.820;9.354;2023-10-09T09:26:40;3.33;;;1.80;;
1328;SDS011;658;48.820;9.354;2023-10-09T09:30:45;3.27;;;2.30;;
1328;SDS011;658;48.820;9.354;2023-10-09T09:34:51;2.30;;;1.90;;
1328;SDS011;658;48.820;9.354;2023-10-09T09:39:01;2.33;;;2.00;;
1328;SDS011;658;48.820;9.354;2023-10-09T09:43:04;4.40;;;2.00;;
1328;SDS011;658;48.820;9.354;2023-10-09T09:47:05;3.30;;;2.23;;
1328;SDS011;658;48.820;9.354;2023-10-09T09:51:09;4.07;;;2.37;;
1328;SDS011;658;48.820;9.354;2023-10-09T09:55:10;1.90;;;1.70;;
1328;SDS011;658;48.820;9.354;2023-10-09T09:59:17;3.10;;;1.90;;
1328;SDS011;658;48.820;9.354;2023-10-09T10:03:29;3.10;;;2.13;;
1328;SDS011;658;48.820;9.354;2023-10-09T10:07:34;3.17;;;1.80;;
1328;SDS011;658;48.820;9.354;2023-10-09T10:11:44;2.20;;;1.40;;
1328;SDS011;658;48.820;9.354;2023-10-09T10:20:01;2.60;;;1.60;;
1328;SDS011;658;48.820;9.354;2023-10-09T10:28:32;4.17;;;1.93;;
1328;SDS011;658;48.820;9.354;2023-10-09T10:36:52;4.23;;;1.60;;
1328;SDS011;658;48.820;9.354;2023-10-09T10:41:18;2.90;;;1.90;;
1328;SDS011;658;48.820;9.354;2023-10-09T10:45:25;2.70;;;1.90;;
1328;SDS011;658;48.820;9.354;2023-10-09T10:49:35;1.80;;;1.70;;
1328;SDS011;658;48.820;9.354;2023-10-09T10:53:50;2.60;;;1.50;;
1328;SDS011;658;48.820;9.354;2023-10-09T10:57:57;1.97;;;1.50;;
1328;SDS011;658;48.820;9.354;2023-10-09T11:02:01;2.70;;;1.80;;
1328;SDS011;658;48.820;9.354;2023-10-09T11:06:01;1.93;;;1.83;;
1328;SDS011;658;48.820;9.354;2023-10-09T11:10:15;3.13;;;1.90;;
1328;SDS011;658;48.820;9.354;2023-10-09T11:14:27;3.20;;;2.00;;
1328;SDS011;658;48.820;9.354;2023-10-09T11:18:42;3.70;;;1.70;;
1328;SDS011;658;48.820;9.354;2023-10-09T11:22:46;1.97;;;1.70;;
1328;SDS011;658;48.820;9.354;2023-10-09T11:27:07;3.20;;;2.20;;
1328;SDS011;658;48.820;9.354;2023-10-09T11:31:18;4.33;;;2.23;;
1328;SDS011;658;48.820;9.354;2023-10-09T11:35:19;1.80;;;1.70;;
1328;SDS011;658;48.820;9.354;2023-10-09T11:39:28;3.30;;;2.20;;
1328;SDS011;658;48.820;9.354;2023-10-09T11:43:48;2.60;;;1.90;;
1328;SDS011;658;48.820;9.354;2023-10-09T11:47:53;2.07;;;1.87;;
1328;SDS011;658;48.820;9.354;2023-10-09T11:52:05;1.97;;;1.70;;
1328;SDS011;658;48.820;9.354;2023-10-09T11:56:08;1.80;;;1.60;;
1328;SDS011;658;48.820;9.354;2023-10-09T12:00:19;2.27;;;1.43;;
1328;SDS011;658;48.820;9.354;2023-10-09T12:04:29;3.20;;;1.80;;
1328;SDS011;658;48.820;9.354;2023-10-09T12:08:31;1.73;;;1.63;;
1328;SDS011;658;48.820;9.354;2023-10-09T12:12:32;1.90;;;1.70;;
1328;SDS011;658;48.820;9.354;2023-10-09T12:16:34;3.70;;;1.60;;
1328;SDS011;658;48.820;9.354;2023-10-09T12:20:42;4.40;;;1.70;;
1328;SDS011;658;48.820;9.354;2023-10-09T12:24:50;3.40;;;1.70;;
1328;SDS011;658;48.820;9.354;2023-10-09T12:28:51;4.10;;;1.97;;
1328;SDS011;658;48.820;9.354;2023-10-09T12:32:52;4.07;;;2.30;;
1328;SDS011;658;48.820;9.354;2023-10-09T12:36:57;3.33;;;1.93;;
1328;SDS011;658;48.820;9.354;2023-10-09T12:41:04;2.50;;;1.70;;
1328;SDS011;658;48.820;9.354;2023-10-09T12:45:19;2.37;;;1.60;;
1328;SDS011;658;48.820;9.354;2023-10-09T12:49:26;2.60;;;1.87;;
1328;SDS011;658;48.820;9.354;2023-10-09T12:53:26;4.07;;;2.00;;
1328;SDS011;658;48.820;9.354;2023-10-09T12:57:28;2.73;;;2.10;;
1328;SDS011;658;48.820;9.354;2023-10-09T13:01:30;3.87;;;2.20;;
1328;SDS011;658;48.820;9.354;2023-10-09T13:05:49;2.70;;;1.90;;
1328;SDS011;658;48.820;9.354;2023-10-09T13:09:58;8.23;;;3.07;;
1328;SDS011;658;48.820;9.354;2023-10-09T13:14:13;4.73;;;1.73;;
1328;SDS011;658;48.820;9.354;2023-10-09T13:18:17;3.57;;;2.20;;
1328;SDS011;658;48.820;9.354;2023-10-09T13:22:18;3.70;;;1.60;;
1328;SDS011;658;48.820;9.354;2023-10-09T13:26:18;1.90;;;1.60;;
1328;SDS011;658;48.820;9.354;2023-10-09T13:30:29;6.70;;;2.30;;
1328;SDS011;658;48.820;9.354;2023-10-09T13:34:30;1.77;;;1.60;;
1328;SDS011;658;48.820;9.354;2023-10-09T13:38:33;2.57;;;1.50;;
1328;SDS011;658;48.820;9.354;2023-10-09T13:42:33;3.07;;;2.20;;
1328;SDS011;658;48.820;9.354;2023-10-09T13:46:35;1.73;;;1.50;;
1328;SDS011;658;48.820;9.354;2023-10-09T13:50:41;2.80;;;1.67;;
1328;SDS011;658;48.820;9.354;2023-10-09T13:54:42;2.17;;;1.60;;
1328;SDS011;658;48.820;9.354;2023-10-09T13:58:51;2.67;;;1.70;;
1328;SDS011;658;48.820;9.354;2023-10-09T14:02:52;3.80;;;1.77;;
1328;SDS011;658;48.820;9.354;2023-10-09T14:06:52;2.80;;;1.60;;
1328;SDS011;658;48.820;9.354;2023-10-09T14:11:00;3.37;;;2.03;;
1328;SDS011;658;48.820;9.354;2023-10-09T14:15:03;4.17;;;1.93;;
1328;SDS011;658;48.820;9.354;2023-10-09T14:19:04;1.60;;;1.50;;
1328;SDS011;658;48.820;9.354;2023-10-09T14:23:08;3.53;;;1.77;;
1328;SDS011;658;48.820;9.354;2023-10-09T14:27:15;2.57;;;1.80;;
1328;SDS011;658;48.820;9.354;2023-10-09T14:31:19;4.77;;;2.70;;
1328;SDS011;658;48.820;9.354;2023-10-09T14:35:27;7.43;;;3.80;;
1328;SDS011;658;48.820;9.354;2023-10-09T14:39:30;4.27;;;3.00;;
1328;SDS011;658;48.820;9.354;2023-10-09T14:43:35;4.60;;;3.47;;
1328;SDS011;658;48.820;9.354;2023-10-09T14:47:37;5.13;;;3.30;;
1328;SDS011;658;48.820;9.354;2023-10-09T14:51:37;7.50;;;4.33;;
1328;SDS011;658;48.820;9.354;2023-10-09T14:55:38;5.67;;;4.43;;
1328;SDS011;658;48.820;9.354;2023-10-09T14:59:39;6.97;;;4.30;;
1328;SDS011;658;48.820;9.354;2023-10-09T15:03:40;8.23;;;4.87;;
1328;SDS011;658;48.820;9.354;2023-10-09T15:07:42;6.50;;;4.70;;
1328;SDS011;658;48.820;9.354;2023-10-09T15:11:42;7.70;;;4.50;;
1328;SDS011;658;48.820;9.354;2023-10-09T15:15:43;7.53;;;5.23;;
1328;SDS011;658;48.820;9.354;2023-10-09T15:19:45;6.57;;;5.03;;
1328;SDS011;658;48.820;9.354;2023-10-09T15:23:46;6.07;;;5.07;;
1328;SDS011;658;48.820;9.354;2023-10-09T15:27:48;9.70;;;5.03;;
1328;SDS011;658;48.820;9.354;2023-10-09T15:31:50;6.50;;;4.20;;
1328;SDS011;658;48.820;9.354;2023-10-09T15:35:50;8.47;;;5.37;;
1328;SDS011;658;48.820;9.354;2023-10-09T15:39:51;5.83;;;4.50;;
1328;SDS011;658;48.820;9.354;2023-10-09T15:43:52;6.57;;;4.60;;
1328;SDS011;658;48.820;9.354;2023-10-09T15:47:52;7.00;;;3.50;;
1328;SDS011;658;48.820;9.354;2023-10-09T15:51:53;3.83;;;3.23;;
1328;SDS011;658;48.820;9.354;2023-10-09T15:55:54;5.70;;;3.80;;
1328;SDS011;658;48.820;9.354;2023-10-09T15:59:57;5.10;;;3.90;;
1328;SDS011;658;48.820;9.354;2023-10-09T16:04:01;4.23;;;3.73;;
1328;SDS011;658;48.820;9.354;2023-10-09T16:08:02;5.10;;;4.00;;
1328;SDS011;658;48.820;9.354;2023-10-09T16:12:06;6.37;;;4.17;;
1328;SDS011;658;48.820;9.354;2023-10-09T16:16:08;6.30;;;3.90;;
1328;SDS011;658;48.820;9.354;2023-10-09T16:20:13;9.13;;;3.83;;
1328;SDS011;658;48.820;9.354;2023-10-09T16:24:25;5.30;;;3.30;;
1328;SDS011;658;48.820;9.354;2023-10-09T16:28:29;6.00;;;3.93;;
1328;SDS011;658;48.820;9.354;2023-10-09T16:32:31;4.77;;;3.50;;
1328;SDS011;658;48.820;9.354;2023-10-09T16:36:35;7.30;;;4.00;;
1328;SDS011;658;48.820;9.354;2023-10-09T16:40:36;7.50;;;3.90;;
1328;SDS011;658;48.820;9.354;2023-10-09T16:44:37;4.80;;;3.73;;
1328;SDS011;658;48.820;9.354;2023-10-09T16:48:40;6.40;;;3.80;;
1328;SDS011;658;48.820;9.354;2023-10-09T16:52:46;5.93;;;3.40;;
1328;SDS011;658;48.820;9.354;2023-10-09T16:56:47;6.33;;;3.60;;
1328;SDS011;658;48.820;9.354;2023-10-09T17:00:50;5.80;;;3.43;;
1328;SDS011;658;48.820;9.354;2023-10-09T17:04:55;7.40;;;3.97;;
1328;SDS011;658;48.820;9.354;2023-10-09T17:08:59;5.60;;;4.40;;
1328;SDS011;658;48.820;9.354;2023-10-09T17:13:00;6.27;;;3.73;;
1328;SDS011;658;48.820;9.354;2023-10-09T17:17:00;5.30;;;3.10;;
1328;SDS011;658;48.820;9.354;2023-10-09T17:21:08;5.00;;;3.37;;
1328;SDS011;658;48.820;9.354;2023-10-09T17:25:12;4.43;;;3.43;;
1328;SDS011;658;48.820;9.354;2023-10-09T17:29:13;5.23;;;3.10;;
1328;SDS011;658;48.820;9.354;2023-10-09T17:33:17;5.53;;;3.83;;
1328;SDS011;658;48.820;9.354;2023-10-09T17:37:22;4.17;;;3.37;;
1328;SDS011;658;48.820;9.354;2023-10-09T17:41:23;3.37;;;3.07;;
1328;SDS011;658;48.820;9.354;2023-10-09T17:45:24;4.20;;;3.10;;
1328;SDS011;658;48.820;9.354;2023-10-09T17:49:24;5.50;;;4.30;;
1328;SDS011;658;48.820;9.354;2023-10-09T17:53:25;7.23;;;5.07;;
1328;SDS011;658;48.820;9.354;2023-10-09T17:57:29;11.53;;;7.90;;
1328;SDS011;658;48.820;9.354;2023-10-09T18:01:30;15.63;;;9.77;;
1328;SDS011;658;48.820;9.354;2023-10-09T18:05:34;15.90;;;9.40;;
1328;SDS011;658;48.820;9.354;2023-10-09T18:09:35;16.17;;;9.57;;
1328;SDS011;658;48.820;9.354;2023-10-09T18:13:35;19.00;;;10.23;;
1328;SDS011;658;48.820;9.354;2023-10-09T18:17:36;15.10;;;9.80;;
1328;SDS011;658;48.820;9.354;2023-10-09T18:21:39;16.07;;;10.87;;
1328;SDS011;658;48.820;9.354;2023-10-09T18:25:43;19.93;;;12.00;;
1328;SDS011;658;48.820;9.354;2023-10-09T18:29:44;28.47;;;19.20;;
1328;SDS011;658;48.820;9.354;2023-10-09T18:33:48;31.30;;;16.43;;
1328;SDS011;658;48.820;9.354;2023-10-09T18:37:55;22.90;;;14.80;;
1328;SDS011;658;48.820;9.354;2023-10-09T18:42:07;26.43;;;14.77;;
1328;SDS011;658;48.820;9.354;2023-10-09T18:46:08;29.50;;;16.70;;
1328;SDS011;658;48.820;9.354;2023-10-09T18:50:10;25.20;;;16.50;;
1328;SDS011;658;48.820;9.354;2023-10-09T18:54:16;26.43;;;16.30;;
1328;SDS011;658;48.820;9.354;2023-10-09T18:58:16;23.70;;;15.33;;
1328;SDS011;658;48.820;9.354;2023-10-09T19:02:19;28.20;;;15.40;;
1328;SDS011;658;48.820;9.354;2023-10-09T19:06:20;25.83;;;15.13;;
1328;SDS011;658;48.820;9.354;2023-10-09T19:10:24;23.30;;;14.63;;
1328;SDS011;658;48.820;9.354;2023-10-09T19:14:25;20.70;;;13.30;;
1328;SDS011;658;48.820;9.354;2023-10-09T19:18:26;23.80;;;14.70;;
1328;SDS011;658;48.820;9.354;2023-10-09T19:22:28;21.23;;;12.87;;
1328;SDS011;658;48.820;9.354;2023-10-09T19:26:28;22.40;;;13.80;;
1328;SDS011;658;48.820;9.354;2023-10-09T19:30:34;21.00;;;13.53;;
1328;SDS011;658;48.820;9.354;2023-10-09T19:34:35;24.13;;;13.20;;
1328;SDS011;658;48.820;9.354;2023-10-09T19:38:38;21.70;;;13.20;;
1328;SDS011;658;48.820;9.354;2023-10-09T19:42:39;21.23;;;12.80;;
1328;SDS011;658;48.820;9.354;2023-10-09T19:46:42;18.30;;;12.10;;
1328;SDS011;658;48.820;9.354;2023-10-09T19:50:46;19.40;;;11.47;;
1328;SDS011;658;48.820;9.354;2023-10-09T19:54:47;20.03;;;12.73;;
1328;SDS011;658;48.820;9.354;2023-10-09T19:58:48;20.47;;;10.77;;
1328;SDS011;658;48.820;9.354;2023-10-09T20:02:48;16.87;;;10.83;;
1328;SDS011;658;48.820;9.354;2023-10-09T20:06:53;13.80;;;10.40;;
1328;SDS011;658;48.820;9.354;2023-10-09T20:10:56;19.30;;;10.73;;
1328;SDS011;658;48.820;9.354;2023-10-09T20:14:56;16.70;;;10.70;;
1328;SDS011;658;48.820;9.354;2023-10-09T20:18:58;16.97;;;10.93;;
1328;SDS011;658;48.820;9.354;2023-10-09T20:22:59;18.50;;;10.93;;
1328;SDS011;658;48.820;9.354;2023-10-09T20:27:04;17.43;;;9.70;;
1328;SDS011;658;48.820;9.354;2023-10-09T20:31:05;11.73;;;9.50;;
1328;SDS011;658;48.820;9.354;2023-10-09T20:35:06;12.03;;;9.10;;
1328;SDS011;658;48.820;9.354;2023-10-09T20:39:13;11.50;;;8.20;;
1328;SDS011;658;48.820;9.354;2023-10-09T20:43:13;14.17;;;8.67;;
1328;SDS011;658;48.820;9.354;2023-10-09T20:47:14;12.40;;;8.63;;
1328;SDS011;658;48.820;9.354;2023-10-09T20:51:14;13.80;;;9.10;;
1328;SDS011;658;48.820;9.354;2023-10-09T20:55:15;13.17;;;8.60;;
1328;SDS011;658;48.820;9.354;2023-10-09T20:59:19;11.53;;;8.53;;
1328;SDS011;658;48.820;9.354;2023-10-09T21:03:20;12.23;;;8.90;;
1328;SDS011;658;48.820;9.354;2023-10-09T21:07:20;12.20;;;8.00;;
1328;SDS011;658;48.820;9.354;2023-10-09T21:11:21;10.50;;;6.93;;
1328;SDS011;658;48.820;9.354;2023-10-09T21:15:24;14.87;;;8.67;;
1328;SDS011;658;48.820;9.354;2023-10-09T21:19:26;11.40;;;7.77;;
1328;SDS011;658;48.820;9.354;2023-10-09T21:23:29;10.97;;;7.80;;
1328;SDS011;658;48.820;9.354;2023-10-09T21:27:32;12.37;;;7.43;;
1328;SDS011;658;48.820;9.354;2023-10-09T21:31:33;11.43;;;7.53;;
1328;SDS011;658;48.820;9.354;2023-10-09T21:35:36;10.90;;;7.47;;
1328;SDS011;658;48.820;9.354;2023-10-09T21:39:40;12.43;;;7.50;;
1328;SDS011;658;48.820;9.354;2023-10-09T21:43:41;10.43;;;7.40;;
1328;SDS011;658;48.820;9.354;2023-10-09T21:47:42;8.23;;;6.40;;
1328;SDS011;658;48.820;9.354;2023-10-09T21:51:43;8.23;;;6.63;;
1328;SDS011;658;48.820;9.354;2023-10-09T21:55:43;11.50;;;6.50;;
1328;SDS011;658;48.820;9.354;2023-10-09T21:59:44;12.23;;;7.70;;
1328;SDS011;658;48.820;9.354;2023-10-09T22:03:47;10.20;;;6.70;;
1328;SDS011;658;48.820;9.354;2023-10-09T22:07:50;9.43;;;6.00;;
1328;SDS011;658;48.820;9.354;2023-10-09T22:11:51;9.50;;;6.60;;
1328;SDS011;658;48.820;9.354;2023-10-09T22:15:52;9.27;;;6.30;;
1328;SDS011;658;48.820;9.354;2023-10-09T22:19:54;8.40;;;6.20;;
1328;SDS011;658;48.820;9.354;2023-10-09T22:23:55;8.73;;;6.30;;
1328;SDS011;658;48.820;9.354;2023-10-09T22:27:58;9.23;;;6.17;;
1328;SDS011;658;48.820;9.354;2023-10-09T22:31:58;7.60;;;6.03;;
1328;SDS011;658;48.820;9.354;2023-10-09T22:35:59;8.03;;;6.00;;
1328;SDS011;658;48.820;9.354;2023-10-09T22:40:00;7.77;;;6.20;;
1328;SDS011;658;48.820;9.354;2023-10-09T22:44:04;7.13;;;5.63;;
1328;SDS011;658;48.820;9.354;2023-10-09T22:48:09;6.30;;;5.30;;
1328;SDS011;658;48.820;9.354;2023-10-09T22:52:14;8.40;;;5.93;;
1328;SDS011;658;48.820;9.354;2023-10-09T22:56:23;7.70;;;6.10;;
1328;SDS011;658;48.820;9.354;2023-10-09T23:00:24;8.60;;;5.30;;
1328;SDS011;658;48.820;9.354;2023-10-09T23:04:37;6.57;;;5.03;;
1328;SDS011;658;48.820;9.354;2023-10-09T23:08:41;6.37;;;5.17;;
1328;SDS011;658;48.820;9.354;2023-10-09T23:12:41;6.60;;;4.90;;
1328;SDS011;658;48.820;9.354;2023-10-09T23:16:48;4.80;;;4.13;;
1328;SDS011;658;48.820;9.354;2023-10-09T23:20:56;5.00;;;4.43;;
1328;SDS011;658;48.820;9.354;2023-10-09T23:25:16;6.03;;;5.20;;
1328;SDS011;658;48.820;9.354;2023-10-09T23:29:29;7.13;;;4.00;;
1328;SDS011;658;48.820;9.354;2023-10-09T23:33:30;5.77;;;5.17;;
1328;SDS011;658;48.820;9.354;2023-10-09T23:37:33;5.93;;;4.57;;
1328;SDS011;658;48.820;9.354;2023-10-09T23:41:40;6.03;;;4.70;;
1328;SDS011;658;48.820;9.354;2023-10-09T23:45:58;6.57;;;4.67;;
1328;SDS011;658;48.820;9.354;2023-10-09T23:49:59;7.27;;;4.07;;
1328;SDS011;658;48.820;9.354;2023-10-09T23:54:02;5.87;;;4.33;;
1328;SDS011;658;48.820;9.354;2023-10-09T23:58:11;5.97;;;4.50;;
